Time;durP1;ratioP1;P1;durP2;ratioP2;P2;SDS_P1;SDS_P2;PMS_P1;PMS_P2;Temp;Humidity;BMP_temperature;BMP_pressure;BME280_temperature;BME280_humidity;BME280_pressure;Samples;Min_cycle;Max_cycle;Signal;HPM_P1;HPM_P2
2024/01/31 00:02:10;;;;;;;5.80;4.30;;;8.90;99.90;;;;;;5032870;28;20218;-81
2024/01/31 00:04:38;;;;;;;8.77;4.80;;;8.90;99.90;;;;;;5032151;28;20206;-81
2024/01/31 00:07:07;;;;;;;9.10;4.40;;;8.80;99.90;;;;;;5051588;28;20201;-81
2024/01/31 00:09:34;;;;;;;9.43;5.40;;;8.90;99.90;;;;;;5038895;28;20202;-81
2024/01/31 00:12:02;;;;;;;10.03;5.40;;;8.80;99.90;;;;;;5060960;28;20206;-80
2024/01/31 00:14:29;;;;;;;11.20;5.20;;;8.70;99.90;;;;;;5040095;28;20205;-80
2024/01/31 00:16:58;;;;;;;10.07;5.87;;;8.80;99.90;;;;;;5049939;28;20209;-81
2024/01/31 00:19:25;;;;;;;8.60;5.17;;;8.80;99.90;;;;;;5069524;28;20205;-81
2024/01/31 00:21:53;;;;;;;9.43;6.03;;;8.80;99.90;;;;;;5023724;28;20202;-81
2024/01/31 00:24:22;;;;;;;12.93;6.10;;;8.80;99.90;;;;;;5023738;28;20257;-81
2024/01/31 00:26:49;;;;;;;12.50;6.43;;;8.60;99.90;;;;;;5051503;28;20190;-81
2024/01/31 00:29:17;;;;;;;12.10;7.23;;;8.60;99.90;;;;;;5037922;28;20191;-81
2024/01/31 00:31:44;;;;;;;11.13;7.27;;;8.60;99.90;;;;;;5036861;28;20194;-81
2024/01/31 00:34:11;;;;;;;10.93;6.47;;;8.70;99.90;;;;;;5051121;28;20450;-81
2024/01/31 00:36:39;;;;;;;11.50;7.27;;;8.70;99.90;;;;;;5072784;28;20209;-81
2024/01/31 00:39:06;;;;;;;10.80;6.43;;;8.70;99.90;;;;;;5063883;28;20201;-81
2024/01/31 00:41:35;;;;;;;8.30;5.83;;;8.70;99.90;;;;;;5046297;28;20249;-81
2024/01/31 00:44:05;;;;;;;8.80;5.23;;;8.80;99.90;;;;;;5025679;28;20221;-81
2024/01/31 00:46:33;;;;;;;12.60;5.93;;;8.70;99.90;;;;;;5051020;28;20200;-81
2024/01/31 00:49:04;;;;;;;8.47;5.97;;;8.60;99.90;;;;;;5060401;28;20191;-81
2024/01/31 00:51:32;;;;;;;11.53;6.57;;;8.60;99.90;;;;;;5029560;28;20719;-81
2024/01/31 00:54:00;;;;;;;8.70;6.10;;;8.60;99.90;;;;;;5047462;28;20222;-81
2024/01/31 00:56:27;;;;;;;10.63;6.10;;;8.60;99.90;;;;;;5070532;28;20220;-81
2024/01/31 00:58:56;;;;;;;9.30;6.00;;;8.60;99.90;;;;;;5044667;28;20205;-81
2024/01/31 01:01:23;;;;;;;10.53;6.47;;;8.70;99.90;;;;;;5058789;28;20206;-81
2024/01/31 01:03:51;;;;;;;12.27;6.60;;;8.70;99.90;;;;;;5042413;28;20210;-81
2024/01/31 01:06:18;;;;;;;12.17;6.87;;;8.70;99.90;;;;;;5053060;28;20229;-81
2024/01/31 01:08:46;;;;;;;10.63;6.20;;;8.80;99.90;;;;;;5044433;28;20648;-81
2024/01/31 01:11:13;;;;;;;11.20;5.77;;;8.70;99.90;;;;;;5034001;28;20198;-81
2024/01/31 01:13:41;;;;;;;9.57;5.33;;;8.80;99.90;;;;;;5042820;28;20233;-81
2024/01/31 01:16:10;;;;;;;12.43;5.60;;;8.70;99.90;;;;;;5050890;28;20221;-81
2024/01/31 01:18:40;;;;;;;10.50;5.00;;;8.70;99.90;;;;;;5055735;28;20193;-81
2024/01/31 01:21:07;;;;;;;9.63;5.23;;;8.70;99.90;;;;;;5060650;28;20198;-81
2024/01/31 01:23:35;;;;;;;10.60;4.43;;;8.60;99.90;;;;;;5034439;28;20541;-81
2024/01/31 01:26:02;;;;;;;8.77;4.50;;;8.60;99.90;;;;;;5040157;28;20213;-81
2024/01/31 01:28:30;;;;;;;8.57;4.70;;;8.60;99.90;;;;;;5043365;28;20195;-81
2024/01/31 01:30:57;;;;;;;7.87;4.73;;;8.60;99.90;;;;;;5032446;28;20206;-81
2024/01/31 01:33:27;;;;;;;8.00;4.20;;;8.70;99.90;;;;;;5041032;28;20194;-81
2024/01/31 01:35:54;;;;;;;10.77;5.70;;;8.60;99.90;;;;;;5056792;28;20579;-81
2024/01/31 01:38:22;;;;;;;12.50;5.60;;;8.60;99.90;;;;;;5060165;28;20198;-81
2024/01/31 01:40:49;;;;;;;11.17;5.27;;;8.60;99.90;;;;;;5039346;28;20194;-81
2024/01/31 01:43:18;;;;;;;10.47;5.30;;;8.60;99.90;;;;;;5023449;28;20203;-81
2024/01/31 01:45:46;;;;;;;10.47;5.77;;;8.70;99.90;;;;;;5053406;28;20194;-81
2024/01/31 01:48:15;;;;;;;13.30;5.57;;;8.60;99.90;;;;;;5057544;28;20232;-81
2024/01/31 01:50:46;;;;;;;11.27;6.13;;;8.60;99.90;;;;;;5039184;28;20679;-80
2024/01/31 01:53:14;;;;;;;9.00;5.53;;;8.60;99.90;;;;;;5060157;28;20194;-80
2024/01/31 01:55:43;;;;;;;13.13;6.30;;;8.50;99.90;;;;;;5053128;28;20225;-81
2024/01/31 01:58:11;;;;;;;8.73;5.83;;;8.60;99.90;;;;;;5022843;28;20656;-81
2024/01/31 02:00:40;;;;;;;13.13;6.30;;;8.60;99.90;;;;;;5025159;28;20207;-81
2024/01/31 02:03:15;;;;;;;9.47;5.60;;;8.60;99.90;;;;;;5036761;28;20209;-80
2024/01/31 02:05:46;;;;;;;10.77;5.83;;;8.60;99.90;;;;;;5041069;28;20193;-81
2024/01/31 02:08:14;;;;;;;13.30;6.60;;;8.40;99.90;;;;;;5056483;28;20209;-80
2024/01/31 02:10:42;;;;;;;12.40;6.47;;;8.40;99.90;;;;;;5043121;28;20195;-81
2024/01/31 02:13:09;;;;;;;10.90;6.10;;;8.60;99.90;;;;;;5063069;28;20191;-81
2024/01/31 02:15:38;;;;;;;9.53;5.43;;;8.70;99.90;;;;;;5068891;28;20218;-81
2024/01/31 02:18:06;;;;;;;15.87;6.50;;;8.80;99.90;;;;;;5039461;28;20695;-81
2024/01/31 02:20:36;;;;;;;12.17;6.57;;;8.80;99.90;;;;;;5044967;28;20209;-81
2024/01/31 02:23:05;;;;;;;10.17;6.23;;;8.80;99.90;;;;;;5039504;28;20214;-81
2024/01/31 02:25:32;;;;;;;10.13;6.23;;;8.80;99.90;;;;;;5054392;28;20229;-80
2024/01/31 02:28:00;;;;;;;10.03;6.33;;;8.60;99.90;;;;;;5048167;28;20201;-80
2024/01/31 02:30:27;;;;;;;7.80;5.57;;;8.70;99.90;;;;;;5058347;28;20199;-81
2024/01/31 02:32:56;;;;;;;10.40;5.17;;;8.60;99.90;;;;;;5058014;28;20198;-81
2024/01/31 02:35:24;;;;;;;10.60;5.90;;;8.50;99.90;;;;;;5070849;28;20225;-80
2024/01/31 02:37:52;;;;;;;5.80;4.13;;;8.50;99.90;;;;;;5054012;28;20199;-80
2024/01/31 02:40:22;;;;;;;9.00;4.67;;;8.40;99.90;;;;;;5046397;28;20213;-81
2024/01/31 02:42:50;;;;;;;7.73;4.60;;;8.30;99.90;;;;;;5042557;28;20194;-80
2024/01/31 02:45:18;;;;;;;7.33;4.50;;;8.30;99.90;;;;;;5062294;28;20560;-80
2024/01/31 02:47:45;;;;;;;7.57;4.70;;;8.30;99.90;;;;;;5033087;28;20202;-80
2024/01/31 02:50:12;;;;;;;8.37;4.13;;;8.30;99.90;;;;;;5024616;28;20199;-81
2024/01/31 02:52:40;;;;;;;5.80;4.10;;;8.20;99.90;;;;;;5044086;28;20198;-81
2024/01/31 02:55:09;;;;;;;6.83;3.93;;;8.30;99.90;;;;;;5051783;28;20229;-80
2024/01/31 02:57:38;;;;;;;6.43;3.70;;;8.10;99.90;;;;;;5042892;28;20225;-80
2024/01/31 03:00:07;;;;;;;11.70;4.47;;;8.10;99.90;;;;;;5050793;28;20190;-80
2024/01/31 03:02:35;;;;;;;5.77;3.83;;;8.20;99.90;;;;;;5066660;28;20198;-81
2024/01/31 03:05:02;;;;;;;8.60;4.23;;;8.20;99.90;;;;;;5042677;28;20576;-81
2024/01/31 03:07:30;;;;;;;6.73;3.97;;;8.20;99.90;;;;;;5039986;28;20209;-81
2024/01/31 03:09:57;;;;;;;8.93;4.17;;;8.30;99.90;;;;;;5029353;28;20210;-81
2024/01/31 03:12:25;;;;;;;6.13;3.33;;;8.40;99.90;;;;;;5051808;28;20209;-81
2024/01/31 03:14:53;;;;;;;6.53;3.60;;;8.30;99.90;;;;;;5041953;28;20222;-81
2024/01/31 03:17:21;;;;;;;6.53;3.83;;;8.30;99.90;;;;;;5036884;28;20218;-81
2024/01/31 03:19:48;;;;;;;8.03;3.83;;;8.40;99.90;;;;;;5046409;28;20201;-81
2024/01/31 03:22:16;;;;;;;5.37;3.67;;;8.30;99.90;;;;;;5058527;28;20206;-81
2024/01/31 03:24:43;;;;;;;6.43;3.77;;;8.30;99.90;;;;;;5031757;28;20234;-81
2024/01/31 03:27:11;;;;;;;5.27;3.33;;;8.30;99.90;;;;;;5023608;28;20206;-81
2024/01/31 03:29:38;;;;;;;5.57;3.60;;;8.40;99.90;;;;;;5040904;28;20191;-80
2024/01/31 03:32:07;;;;;;;6.37;3.27;;;8.50;99.90;;;;;;5054578;28;20198;-81
2024/01/31 03:34:35;;;;;;;5.60;2.90;;;8.40;99.90;;;;;;5041813;28;20244;-81
2024/01/31 03:37:04;;;;;;;6.57;2.40;;;8.30;99.90;;;;;;5037003;28;20222;-80
2024/01/31 03:39:34;;;;;;;5.33;2.53;;;8.30;99.90;;;;;;5041614;28;20206;-80
2024/01/31 03:42:02;;;;;;;4.50;1.60;;;8.40;99.90;;;;;;5048283;28;20668;-81
2024/01/31 03:44:29;;;;;;;6.30;1.97;;;8.30;99.90;;;;;;5040739;28;20211;-81
2024/01/31 03:46:57;;;;;;;2.13;1.67;;;8.30;99.90;;;;;;5050712;28;20178;-80
2024/01/31 03:49:26;;;;;;;3.57;1.87;;;8.10;99.90;;;;;;5057387;28;20820;-80
2024/01/31 03:51:53;;;;;;;1.83;1.13;;;8.10;99.90;;;;;;5043739;28;20581;-80
2024/01/31 03:54:22;;;;;;;5.30;1.40;;;8.10;99.90;;;;;;5060278;28;20214;-80
2024/01/31 03:56:50;;;;;;;5.13;1.43;;;8.20;99.90;;;;;;5057162;28;20217;-81
2024/01/31 03:59:17;;;;;;;1.80;1.40;;;8.10;99.90;;;;;;5054669;28;20183;-81
2024/01/31 04:01:45;;;;;;;5.23;1.60;;;8.10;99.90;;;;;;5053484;28;20221;-80
2024/01/31 04:04:12;;;;;;;2.60;1.40;;;8.10;99.90;;;;;;5049291;28;20230;-80
2024/01/31 04:06:41;;;;;;;2.37;1.20;;;8.10;99.90;;;;;;5037812;28;20664;-80
2024/01/31 04:09:08;;;;;;;3.13;1.10;;;8.00;99.90;;;;;;5038927;28;20201;-81
2024/01/31 04:11:36;;;;;;;3.00;1.20;;;8.20;99.90;;;;;;5039024;28;20206;-81
2024/01/31 04:14:03;;;;;;;2.90;1.20;;;8.20;99.90;;;;;;5034371;28;20222;-81
2024/01/31 04:16:31;;;;;;;2.43;0.90;;;8.30;99.90;;;;;;5028010;28;20211;-81
2024/01/31 04:18:59;;;;;;;2.50;1.33;;;8.30;99.90;;;;;;5032495;28;20190;-80
2024/01/31 04:21:26;;;;;;;4.03;1.00;;;8.20;99.90;;;;;;5045680;28;20209;-81
2024/01/31 04:23:56;;;;;;;1.47;0.87;;;8.30;99.90;;;;;;5043719;28;20225;-80
2024/01/31 04:26:23;;;;;;;2.80;1.20;;;8.30;99.90;;;;;;5049892;28;20201;-80
2024/01/31 04:28:51;;;;;;;4.40;1.20;;;8.30;99.90;;;;;;5039833;28;20198;-80
2024/01/31 04:31:18;;;;;;;3.53;1.23;;;8.20;99.90;;;;;;5034492;28;20603;-80
2024/01/31 04:33:46;;;;;;;2.33;1.27;;;8.10;99.90;;;;;;5048724;28;20214;-80
2024/01/31 04:36:13;;;;;;;2.70;1.23;;;8.20;99.90;;;;;;5036924;28;20669;-81
2024/01/31 04:38:41;;;;;;;5.20;1.33;;;8.20;99.90;;;;;;5021370;28;20195;-81
2024/01/31 04:41:10;;;;;;;2.47;1.33;;;8.40;99.90;;;;;;5046797;28;20214;-81
2024/01/31 04:43:37;;;;;;;3.37;1.50;;;8.20;99.90;;;;;;5038270;28;20649;-81
2024/01/31 04:46:05;;;;;;;2.37;1.60;;;8.30;99.90;;;;;;5052573;28;20210;-80
2024/01/31 04:48:32;;;;;;;2.60;1.70;;;8.40;99.90;;;;;;5059640;28;20197;-81
2024/01/31 04:51:00;;;;;;;2.33;1.80;;;8.30;99.90;;;;;;5052576;28;20206;-81
2024/01/31 04:53:27;;;;;;;3.27;2.20;;;8.20;99.90;;;;;;5063797;28;20195;-81
2024/01/31 04:55:56;;;;;;;2.77;2.27;;;8.00;99.90;;;;;;5038810;28;20210;-81
2024/01/31 04:58:25;;;;;;;5.20;2.53;;;8.30;99.90;;;;;;5020463;28;20579;-81
2024/01/31 05:00:52;;;;;;;3.10;2.43;;;8.10;99.90;;;;;;5026471;28;20217;-80
2024/01/31 05:03:20;;;;;;;3.73;2.10;;;8.10;99.90;;;;;;5056338;28;20205;-81
2024/01/31 05:05:47;;;;;;;3.80;2.17;;;8.10;99.90;;;;;;5041632;28;20202;-81
2024/01/31 05:08:15;;;;;;;4.53;2.10;;;7.90;99.90;;;;;;5056140;28;20187;-81
2024/01/31 05:10:45;;;;;;;3.50;2.00;;;8.00;99.90;;;;;;5042393;28;20209;-81
2024/01/31 05:13:13;;;;;;;3.27;1.90;;;8.10;99.90;;;;;;5042453;28;20202;-80
2024/01/31 05:15:42;;;;;;;2.93;2.00;;;8.20;99.90;;;;;;5045614;28;20210;-81
2024/01/31 05:18:09;;;;;;;4.13;1.80;;;8.10;99.90;;;;;;5057857;28;20215;-80
2024/01/31 05:20:37;;;;;;;2.73;1.90;;;8.20;99.90;;;;;;5051622;28;20659;-81
2024/01/31 05:23:04;;;;;;;2.10;1.67;;;8.20;99.90;;;;;;5028763;28;20198;-81
2024/01/31 05:25:32;;;;;;;5.43;1.77;;;8.20;99.90;;;;;;5043689;28;20688;-81
2024/01/31 05:27:59;;;;;;;4.23;2.07;;;8.10;99.90;;;;;;5057400;28;20186;-81
2024/01/31 05:30:27;;;;;;;3.00;1.60;;;8.20;99.90;;;;;;5059731;28;20198;-81
2024/01/31 05:32:56;;;;;;;2.93;1.80;;;8.20;99.90;;;;;;5052952;28;20648;-81
2024/01/31 05:35:24;;;;;;;2.40;1.90;;;8.00;99.90;;;;;;5053557;28;20218;-81
2024/01/31 05:37:51;;;;;;;2.63;1.80;;;8.00;99.90;;;;;;5036966;28;20237;-81
2024/01/31 05:40:19;;;;;;;3.33;2.20;;;8.00;99.90;;;;;;5055425;28;20210;-81
2024/01/31 05:42:46;;;;;;;2.23;1.77;;;7.90;99.90;;;;;;5039218;28;20356;-81
2024/01/31 05:45:14;;;;;;;3.07;2.00;;;8.00;99.90;;;;;;5058908;28;20210;-81
2024/01/31 05:47:41;;;;;;;2.90;1.80;;;7.90;99.90;;;;;;5031929;28;20270;-81
2024/01/31 05:50:11;;;;;;;4.07;1.80;;;8.00;99.90;;;;;;5020483;28;20199;-81
2024/01/31 05:52:38;;;;;;;3.97;2.10;;;7.90;99.90;;;;;;5037477;28;20198;-81
2024/01/31 05:55:06;;;;;;;2.53;2.10;;;7.90;99.90;;;;;;5070667;28;20210;-81
2024/01/31 05:57:34;;;;;;;2.83;2.13;;;7.80;99.90;;;;;;5085808;28;20217;-81
2024/01/31 06:00:06;;;;;;;5.73;2.60;;;7.80;99.90;;;;;;5066950;28;20187;-81
2024/01/31 06:02:39;;;;;;;4.77;2.77;;;7.80;99.90;;;;;;5059965;28;20194;-81
2024/01/31 06:05:07;;;;;;;4.10;2.47;;;7.60;99.90;;;;;;5032021;28;20206;-81
2024/01/31 06:07:36;;;;;;;3.40;2.40;;;7.60;99.90;;;;;;5037517;28;20202;-81
2024/01/31 06:10:04;;;;;;;3.63;2.10;;;7.50;99.90;;;;;;5032139;28;20201;-81
2024/01/31 06:12:31;;;;;;;5.23;2.03;;;7.70;99.90;;;;;;5055240;28;20205;-81
2024/01/31 06:14:59;;;;;;;4.73;2.70;;;7.90;99.90;;;;;;5050969;28;20229;-81
2024/01/31 06:17:26;;;;;;;5.03;2.63;;;7.90;99.90;;;;;;5035416;28;20210;-81
2024/01/31 06:19:54;;;;;;;4.47;2.50;;;7.90;99.90;;;;;;5053884;28;20194;-81
2024/01/31 06:22:23;;;;;;;4.43;2.97;;;8.00;99.90;;;;;;5042637;28;20203;-81
2024/01/31 06:24:52;;;;;;;4.03;2.60;;;8.10;99.90;;;;;;5057352;28;20214;-81
2024/01/31 06:27:19;;;;;;;4.87;2.27;;;7.90;99.90;;;;;;5038987;28;20213;-81
2024/01/31 06:29:47;;;;;;;3.90;3.10;;;7.70;99.90;;;;;;5055542;28;20199;-81
2024/01/31 06:32:21;;;;;;;4.17;3.33;;;7.70;99.90;;;;;;5046887;28;20191;-81
2024/01/31 06:34:52;;;;;;;4.53;2.70;;;7.90;99.90;;;;;;5038227;28;20211;-81
2024/01/31 06:37:19;;;;;;;4.80;3.03;;;7.90;99.90;;;;;;5034828;28;20202;-81
2024/01/31 06:39:47;;;;;;;4.17;2.50;;;7.70;99.90;;;;;;5036233;28;20205;-81
2024/01/31 06:42:16;;;;;;;3.40;2.20;;;7.70;99.90;;;;;;5041572;28;20217;-82
2024/01/31 06:44:43;;;;;;;6.03;2.73;;;8.90;99.90;;;;;;5034140;28;20225;-82
2024/01/31 06:47:11;;;;;;;5.27;3.30;;;9.30;99.90;;;;;;5046306;28;20198;-81
2024/01/31 06:49:38;;;;;;;7.57;2.47;;;8.40;99.90;;;;;;5054862;28;20190;-81
2024/01/31 06:52:11;;;;;;;6.03;2.80;;;8.00;99.90;;;;;;5035387;28;20190;-80
2024/01/31 06:54:44;;;;;;;3.70;2.93;;;8.00;99.90;;;;;;5036523;28;20225;-81
2024/01/31 06:57:15;;;;;;;3.53;2.70;;;7.90;99.90;;;;;;5056124;28;20214;-81
2024/01/31 06:59:49;;;;;;;5.20;3.03;;;7.80;99.90;;;;;;5057885;28;20603;-80
2024/01/31 07:02:16;;;;;;;4.57;2.83;;;7.50;99.90;;;;;;5060757;28;20198;-81
2024/01/31 07:04:44;;;;;;;6.63;3.17;;;7.40;99.90;;;;;;5075629;28;20218;-82
2024/01/31 07:07:13;;;;;;;3.60;3.30;;;7.50;99.90;;;;;;5044863;28;20199;-80
2024/01/31 07:09:41;;;;;;;4.23;2.83;;;7.60;99.90;;;;;;5047858;28;20204;-82
2024/01/31 07:12:08;;;;;;;5.73;3.73;;;7.80;99.90;;;;;;5065719;28;20199;-81
2024/01/31 07:14:37;;;;;;;3.83;3.10;;;7.80;99.90;;;;;;5069029;28;20229;-81
2024/01/31 07:17:05;;;;;;;5.50;3.57;;;7.90;99.90;;;;;;5076338;28;20208;-80
2024/01/31 07:19:43;;;;;;;6.57;3.23;;;7.90;99.90;;;;;;5055944;28;20222;-81
2024/01/31 07:22:10;;;;;;;5.30;3.80;;;7.80;99.90;;;;;;5044391;28;20198;-81
2024/01/31 07:24:38;;;;;;;6.13;3.90;;;7.60;99.90;;;;;;5066861;28;20225;-81
2024/01/31 07:27:06;;;;;;;6.53;4.70;;;7.50;99.90;;;;;;5050041;28;20203;-78
2024/01/31 07:29:33;;;;;;;6.17;3.70;;;7.50;99.90;;;;;;5050287;28;20194;-79
2024/01/31 07:32:02;;;;;;;5.03;4.20;;;7.60;99.90;;;;;;5037710;28;20207;-79
2024/01/31 07:34:30;;;;;;;7.43;4.07;;;7.50;99.90;;;;;;5047600;28;20222;-79
2024/01/31 07:36:57;;;;;;;6.73;3.93;;;7.40;99.90;;;;;;5038548;28;20199;-79
2024/01/31 07:39:25;;;;;;;6.97;4.13;;;7.40;99.90;;;;;;5029441;28;20222;-80
2024/01/31 07:42:00;;;;;;;6.50;5.10;;;7.40;99.90;;;;;;5028723;28;20194;-78
2024/01/31 07:44:42;;;;;;;7.80;5.47;;;7.40;99.90;;;;;;5035178;28;20707;-78
2024/01/31 07:47:22;;;;;;;8.97;5.83;;;7.40;99.90;;;;;;5038181;28;20209;-78
2024/01/31 07:49:52;;;;;;;8.27;5.63;;;7.40;99.90;;;;;;5032640;28;20661;-78
2024/01/31 07:52:19;;;;;;;9.60;5.17;;;7.40;99.90;;;;;;5038982;28;20202;-78
2024/01/31 07:58:37;;;;;;;10.87;5.93;;;7.50;99.90;;;;;;5040874;28;20201;-78
2024/01/31 08:01:42;;;;;;;9.23;6.33;;;7.40;99.90;;;;;;5070410;28;20197;-78
2024/01/31 08:04:54;;;;;;;9.73;6.60;;;7.40;99.90;;;;;;5052963;28;20217;-79
2024/01/31 08:07:29;;;;;;;10.10;6.40;;;7.60;99.90;;;;;;5032607;28;20198;-78
2024/01/31 08:09:57;;;;;;;8.03;5.90;;;7.70;99.90;;;;;;5036723;28;20201;-79
2024/01/31 08:12:24;;;;;;;11.37;6.50;;;7.80;99.90;;;;;;5030144;28;20206;-79
2024/01/31 08:14:53;;;;;;;9.80;5.87;;;7.90;99.90;;;;;;5027077;28;20237;-80
2024/01/31 08:17:23;;;;;;;8.73;6.90;;;7.90;99.90;;;;;;5040036;28;20664;-79
2024/01/31 08:19:51;;;;;;;13.23;7.43;;;8.00;99.90;;;;;;5035723;28;20712;-78
2024/01/31 08:22:20;;;;;;;10.67;6.23;;;8.10;99.90;;;;;;5039223;28;20202;-78
2024/01/31 08:24:56;;;;;;;12.37;7.93;;;8.10;99.90;;;;;;5041774;28;20227;-78
2024/01/31 08:27:24;;;;;;;11.93;7.87;;;8.10;99.90;;;;;;5029469;28;20202;-79
2024/01/31 08:29:56;;;;;;;14.07;8.07;;;8.10;99.90;;;;;;5048467;28;20190;-79
2024/01/31 08:32:27;;;;;;;14.70;8.37;;;8.00;99.90;;;;;;5033586;28;20201;-79
2024/01/31 08:34:54;;;;;;;9.73;7.30;;;8.00;99.90;;;;;;5050143;28;20218;-79
2024/01/31 08:37:22;;;;;;;9.53;6.93;;;8.00;99.90;;;;;;5047209;28;20202;-79
2024/01/31 08:39:51;;;;;;;14.33;7.67;;;7.90;99.90;;;;;;5028115;28;20210;-79
2024/01/31 08:42:18;;;;;;;12.07;7.73;;;8.00;99.90;;;;;;5049561;28;20191;-79
2024/01/31 08:44:46;;;;;;;11.07;7.53;;;7.80;99.90;;;;;;5024444;28;20210;-76
2024/01/31 08:47:13;;;;;;;7.70;5.13;;;7.80;99.90;;;;;;5046904;28;20564;-76
2024/01/31 08:49:40;;;;;;;13.13;7.13;;;9.20;99.90;;;;;;5044443;28;20579;-76
2024/01/31 08:52:08;;;;;;;12.57;7.97;;;9.90;99.90;;;;;;5045179;28;20258;-78
2024/01/31 08:54:42;;;;;;;11.27;8.17;;;10.30;99.90;;;;;;5021645;28;20214;-79
2024/01/31 08:57:11;;;;;;;11.40;8.47;;;8.90;99.90;;;;;;5051261;28;20202;-79
2024/01/31 08:59:39;;;;;;;12.93;8.60;;;8.50;99.90;;;;;;5021428;28;20207;-79
2024/01/31 09:02:16;;;;;;;13.23;8.00;;;8.30;99.90;;;;;;5035625;28;20668;-78
2024/01/31 09:04:44;;;;;;;13.20;8.17;;;8.20;99.90;;;;;;5030301;28;20222;-78
2024/01/31 09:07:11;;;;;;;12.30;8.43;;;8.20;99.90;;;;;;5034531;28;20213;-78
2024/01/31 09:09:39;;;;;;;12.87;8.27;;;7.90;99.90;;;;;;5052612;28;20198;-78
2024/01/31 09:12:08;;;;;;;15.67;8.43;;;8.00;99.90;;;;;;5037494;28;20222;-79
2024/01/31 09:17:56;;;;;;;14.70;7.90;;;8.10;99.90;;;;;;5025004;28;20201;-79
2024/01/31 09:20:23;;;;;;;17.20;9.10;;;7.90;99.90;;;;;;5049833;28;20207;-79
2024/01/31 09:22:50;;;;;;;15.83;9.17;;;8.10;99.90;;;;;;5027070;28;20206;-79
2024/01/31 09:25:18;;;;;;;12.57;8.83;;;7.80;99.90;;;;;;5049687;28;20230;-79
2024/01/31 09:27:46;;;;;;;12.77;8.70;;;8.00;99.90;;;;;;5054440;28;20198;-79
2024/01/31 09:30:19;;;;;;;14.33;8.53;;;8.00;99.90;;;;;;5051645;28;20195;-79
2024/01/31 09:32:47;;;;;;;12.37;8.20;;;8.10;99.90;;;;;;5054203;28;20178;-79
2024/01/31 09:35:16;;;;;;;13.03;7.73;;;7.90;99.90;;;;;;5051724;28;20218;-79
2024/01/31 09:37:46;;;;;;;12.00;8.40;;;7.90;99.90;;;;;;5049641;28;20265;-78
2024/01/31 09:40:55;;;;;;;13.63;8.07;;;8.10;99.90;;;;;;5049536;28;20226;-79
2024/01/31 09:44:16;;;;;;;12.00;7.57;;;8.20;99.90;;;;;;5016075;28;20194;-79
2024/01/31 09:47:36;;;;;;;10.87;7.73;;;8.20;99.90;;;;;;5007385;28;20217;-79
2024/01/31 09:57:02;;;;;;;13.83;9.20;;;8.00;99.90;;;;;;5009837;28;20299;-79
2024/01/31 10:00:13;;;;;;;12.90;8.90;;;7.90;99.90;;;;;;4996867;28;20219;-79
2024/01/31 10:03:19;;;;;;;14.57;8.77;;;7.80;99.90;;;;;;5003071;28;20196;-79
2024/01/31 10:06:05;;;;;;;12.80;7.33;;;7.90;99.90;;;;;;4974065;28;20201;-79
2024/01/31 10:09:02;;;;;;;9.30;6.60;;;8.00;99.90;;;;;;4984684;28;20199;-78
2024/01/31 10:12:07;;;;;;;9.00;6.90;;;7.90;99.90;;;;;;4981525;28;20630;-78
2024/01/31 10:15:04;;;;;;;10.30;7.27;;;7.80;99.90;;;;;;4986295;28;20223;-79
2024/01/31 10:17:34;;;;;;;13.27;7.70;;;7.90;99.90;;;;;;4999284;28;20197;-79
2024/01/31 10:20:07;;;;;;;9.93;6.50;;;8.00;99.90;;;;;;4993143;28;20566;-79
2024/01/31 10:22:39;;;;;;;9.60;6.83;;;8.10;99.90;;;;;;4992196;28;20208;-79
2024/01/31 10:25:08;;;;;;;7.87;5.90;;;8.10;99.90;;;;;;4977476;28;20721;-79
2024/01/31 10:27:42;;;;;;;9.47;7.03;;;8.20;99.90;;;;;;4996687;28;20208;-79
2024/01/31 10:31:16;;;;;;;12.70;7.33;;;8.10;99.90;;;;;;4988813;28;20193;-79
2024/01/31 10:34:50;;;;;;;9.33;7.57;;;8.10;99.90;;;;;;4980645;28;20231;-79
2024/01/31 10:38:01;;;;;;;12.53;7.77;;;8.10;99.90;;;;;;4939790;28;20211;-79
2024/01/31 10:40:40;;;;;;;12.07;7.50;;;8.00;99.90;;;;;;5008348;28;20580;-79
2024/01/31 10:43:09;;;;;;;12.23;7.03;;;7.90;99.90;;;;;;5004735;28;20207;-78
2024/01/31 10:45:38;;;;;;;9.33;6.80;;;7.90;99.90;;;;;;5001366;28;20227;-78
2024/01/31 10:48:08;;;;;;;10.03;6.50;;;7.90;99.90;;;;;;4994584;28;20200;-80
2024/01/31 10:50:36;;;;;;;9.77;6.43;;;7.80;99.90;;;;;;4991229;28;20688;-79
2024/01/31 10:53:05;;;;;;;9.33;5.97;;;8.00;99.90;;;;;;5000554;28;20188;-79
2024/01/31 10:55:34;;;;;;;9.03;6.97;;;8.10;99.90;;;;;;5011766;28;20594;-79
2024/01/31 10:58:03;;;;;;;9.00;6.53;;;8.10;99.90;;;;;;4980512;28;20213;-78
2024/01/31 11:00:32;;;;;;;13.50;6.60;;;8.10;99.90;;;;;;4999964;28;20204;-79
2024/01/31 11:03:00;;;;;;;8.07;5.80;;;8.10;99.90;;;;;;5002734;28;20203;-79
2024/01/31 11:05:30;;;;;;;8.37;5.57;;;8.00;99.90;;;;;;5012201;28;20231;-78
2024/01/31 11:07:59;;;;;;;8.90;6.77;;;8.00;99.90;;;;;;5006944;28;20199;-79
2024/01/31 11:10:27;;;;;;;8.90;6.30;;;8.10;99.90;;;;;;4995270;28;20204;-79
2024/01/31 11:13:00;;;;;;;8.60;6.07;;;8.00;99.90;;;;;;4996807;28;20200;-79
2024/01/31 11:15:34;;;;;;;9.73;6.20;;;8.10;99.90;;;;;;4999587;28;20216;-79
2024/01/31 11:18:08;;;;;;;11.20;7.00;;;8.10;99.90;;;;;;4995201;28;20200;-79
2024/01/31 11:20:37;;;;;;;8.97;6.20;;;8.30;99.90;;;;;;4994979;28;20227;-77
2024/01/31 11:23:42;;;;;;;9.83;6.10;;;8.30;99.90;;;;;;5003533;28;20206;-75
2024/01/31 11:26:09;;;;;;;9.40;6.70;;;8.90;99.90;;;;;;5003677;28;20665;-75
2024/01/31 11:28:42;;;;;;;9.10;6.30;;;8.50;99.90;;;;;;4985872;28;20663;-79
2024/01/31 11:31:11;;;;;;;14.67;7.77;;;8.30;99.90;;;;;;4993212;28;20224;-79
2024/01/31 11:33:39;;;;;;;10.53;6.30;;;8.20;99.90;;;;;;5004876;28;20252;-79
2024/01/31 11:36:19;;;;;;;11.33;7.07;;;8.30;99.90;;;;;;4993870;28;20211;-79
2024/01/31 11:38:46;;;;;;;11.97;7.77;;;8.20;99.90;;;;;;4978636;28;20200;-79
2024/01/31 11:41:14;;;;;;;10.53;7.80;;;8.30;99.90;;;;;;4994144;28;20216;-79
2024/01/31 11:43:41;;;;;;;16.40;8.83;;;8.20;99.90;;;;;;5004521;28;20228;-79
2024/01/31 11:46:10;;;;;;;12.37;8.20;;;8.30;99.90;;;;;;4998376;28;20204;-79
2024/01/31 11:48:41;;;;;;;11.40;7.93;;;8.20;99.90;;;;;;5004096;28;20200;-79
2024/01/31 11:51:09;;;;;;;11.00;7.30;;;8.00;99.90;;;;;;4998029;28;20201;-79
2024/01/31 11:53:36;;;;;;;12.47;7.77;;;8.10;99.90;;;;;;4994644;28;20207;-79
2024/01/31 11:56:04;;;;;;;13.53;8.27;;;8.10;99.90;;;;;;4998865;28;20581;-79
2024/01/31 11:58:32;;;;;;;12.07;8.93;;;8.30;99.90;;;;;;4994137;28;20204;-79
2024/01/31 12:00:59;;;;;;;15.53;9.33;;;8.30;99.90;;;;;;4998179;28;20196;-79
2024/01/31 12:03:28;;;;;;;18.40;9.90;;;8.30;99.90;;;;;;5000352;28;20209;-79
2024/01/31 12:05:57;;;;;;;13.97;8.87;;;8.30;99.90;;;;;;5006869;28;20213;-79
2024/01/31 12:08:27;;;;;;;15.23;9.40;;;8.20;99.90;;;;;;4983447;28;20223;-79
2024/01/31 12:11:00;;;;;;;15.27;9.40;;;8.10;99.90;;;;;;4991434;28;20203;-79
2024/01/31 12:13:30;;;;;;;14.50;8.60;;;8.10;99.90;;;;;;4997407;28;20200;-78
2024/01/31 12:16:01;;;;;;;17.17;9.80;;;8.10;99.90;;;;;;4982597;28;20193;-79
2024/01/31 12:18:29;;;;;;;18.17;9.97;;;8.10;99.90;;;;;;4986058;28;20669;-79
2024/01/31 12:21:10;;;;;;;16.43;10.03;;;8.10;99.90;;;;;;4999548;28;20229;-78
2024/01/31 12:23:37;;;;;;;15.93;9.87;;;8.00;99.90;;;;;;5012802;28;20184;-80
2024/01/31 12:26:05;;;;;;;16.00;9.23;;;8.10;99.90;;;;;;5002891;28;20193;-79
2024/01/31 12:28:32;;;;;;;17.37;9.93;;;8.10;99.90;;;;;;4988204;28;20205;-79
2024/01/31 12:31:00;;;;;;;16.40;10.00;;;8.10;99.90;;;;;;4984463;28;20193;-79
2024/01/31 12:33:29;;;;;;;16.07;10.20;;;8.10;99.90;;;;;;4983017;28;20201;-80
2024/01/31 12:35:56;;;;;;;16.10;9.93;;;8.30;99.90;;;;;;4983676;28;20212;-80
2024/01/31 12:38:23;;;;;;;16.63;10.43;;;8.30;99.90;;;;;;4976589;28;20211;-80
2024/01/31 12:40:51;;;;;;;21.03;10.20;;;8.30;99.90;;;;;;4979223;28;20228;-80
2024/01/31 12:43:20;;;;;;;16.93;11.07;;;8.20;99.90;;;;;;5004267;28;20207;-80
2024/01/31 12:45:47;;;;;;;16.50;10.07;;;8.30;99.90;;;;;;4978967;28;20204;-80
2024/01/31 12:48:15;;;;;;;16.73;11.27;;;8.30;99.90;;;;;;5000316;28;20200;-79
2024/01/31 12:50:44;;;;;;;17.93;10.03;;;8.30;99.90;;;;;;4986816;28;20208;-79
2024/01/31 12:53:12;;;;;;;19.27;10.63;;;8.30;99.90;;;;;;4991944;28;20224;-79
2024/01/31 12:55:39;;;;;;;16.40;10.37;;;8.40;99.90;;;;;;4994755;28;20216;-80
2024/01/31 12:58:07;;;;;;;17.97;10.37;;;8.40;99.90;;;;;;4980985;28;20407;-79
2024/01/31 13:00:34;;;;;;;16.70;10.40;;;8.30;99.90;;;;;;4989798;28;20243;-79
2024/01/31 13:03:02;;;;;;;14.93;10.63;;;8.40;99.90;;;;;;4993107;28;20204;-78
2024/01/31 13:05:40;;;;;;;15.07;9.90;;;8.40;99.90;;;;;;4990629;28;20605;-79
2024/01/31 13:08:22;;;;;;;16.40;10.80;;;8.30;99.90;;;;;;4976538;28;20207;-79
2024/01/31 13:10:49;;;;;;;15.33;9.20;;;8.30;99.90;;;;;;4988898;28;20667;-79
2024/01/31 13:13:28;;;;;;;14.17;9.60;;;8.30;99.90;;;;;;4992813;28;20204;-79
2024/01/31 13:16:23;;;;;;;14.57;9.53;;;8.30;99.90;;;;;;4975500;28;20192;-79
2024/01/31 13:18:50;;;;;;;13.47;9.10;;;8.40;99.90;;;;;;4963632;28;20200;-79
2024/01/31 13:21:18;;;;;;;14.60;10.40;;;8.40;99.90;;;;;;4991746;28;20251;-79
2024/01/31 13:23:47;;;;;;;13.30;9.60;;;8.30;99.90;;;;;;4989613;28;20216;-80
2024/01/31 13:26:14;;;;;;;14.70;10.33;;;8.30;99.90;;;;;;4992525;28;20203;-79